Time;durP1;ratioP1;P1;durP2;ratioP2;P2;SDS_P1;SDS_P2;PMS_P1;PMS_P2;Temp;Humidity;BMP_temperature;BMP_pressure;BME280_temperature;BME280_humidity;BME280_pressure;Samples;Min_cycle;Max_cycle;Signal;HPM_P1;HPM_P2
2022/04/23 00:01:00;;;;;;;19.85;12.93;;;16.30;67.40;;;;;;5078413;28;20063;-60
2022/04/23 00:03:26;;;;;;;27.83;12.93;;;16.30;67.40;;;;;;5069026;28;20040;-61
2022/04/23 00:05:51;;;;;;;19.65;12.57;;;16.20;67.40;;;;;;5084181;28;20055;-61
2022/04/23 00:08:17;;;;;;;28.48;13.18;;;16.20;67.40;;;;;;5085376;28;20022;-60
2022/04/23 00:10:42;;;;;;;18.85;12.65;;;16.20;67.50;;;;;;5055963;28;20032;-61
2022/04/23 00:13:09;;;;;;;23.98;12.23;;;16.20;67.50;;;;;;5070915;28;20036;-61
2022/04/23 00:15:38;;;;;;;22.08;13.45;;;16.20;67.50;;;;;;5088167;28;20475;-60
2022/04/23 00:18:07;;;;;;;25.00;12.68;;;16.20;67.50;;;;;;5089156;28;20502;-60
2022/04/23 00:20:33;;;;;;;22.58;13.75;;;16.10;67.50;;;;;;5054847;28;20039;-60
2022/04/23 00:22:59;;;;;;;19.77;14.13;;;16.10;67.50;;;;;;5082531;28;20028;-59
2022/04/23 00:25:25;;;;;;;20.30;12.88;;;16.10;67.50;;;;;;5088624;28;20049;-60
2022/04/23 00:27:51;;;;;;;18.05;12.90;;;16.10;67.60;;;;;;5082390;28;20024;-61
2022/04/23 00:30:16;;;;;;;17.67;13.40;;;16.10;67.70;;;;;;5073314;28;20400;-61
2022/04/23 00:32:42;;;;;;;18.55;12.40;;;16.10;67.90;;;;;;5088916;28;20532;-60
2022/04/23 00:35:08;;;;;;;25.10;13.52;;;16.10;67.90;;;;;;5079790;28;20499;-61
2022/04/23 00:37:33;;;;;;;17.52;13.07;;;16.10;67.90;;;;;;5087967;28;20496;-61
2022/04/23 00:39:59;;;;;;;19.83;13.75;;;16.10;67.90;;;;;;5069509;28;20432;-60
2022/04/23 00:42:24;;;;;;;19.75;14.30;;;16.00;68.00;;;;;;5077970;28;20043;-60
2022/04/23 00:44:50;;;;;;;17.33;12.77;;;16.10;68.20;;;;;;5044883;28;20505;-61
2022/04/23 00:47:15;;;;;;;16.63;11.82;;;16.00;68.00;;;;;;5081557;28;20056;-60
2022/04/23 00:49:41;;;;;;;19.77;14.20;;;16.00;67.90;;;;;;5082892;28;20179;-60
2022/04/23 00:52:07;;;;;;;15.13;12.48;;;16.00;68.10;;;;;;5068461;28;20507;-60
2022/04/23 00:54:33;;;;;;;21.92;13.88;;;16.00;68.10;;;;;;5074715;28;20024;-61
2022/04/23 00:56:58;;;;;;;21.02;13.43;;;16.00;68.20;;;;;;5058226;28;20503;-61
2022/04/23 00:59:24;;;;;;;17.92;12.25;;;15.90;68.20;;;;;;5071774;28;20509;-61
2022/04/23 01:01:53;;;;;;;18.63;13.48;;;15.90;68.20;;;;;;5049140;28;20040;-61
2022/04/23 01:04:18;;;;;;;15.35;12.48;;;15.90;68.20;;;;;;5066783;28;20500;-61
2022/04/23 01:06:44;;;;;;;16.83;12.90;;;15.90;68.20;;;;;;5057807;28;20044;-61
2022/04/23 01:09:10;;;;;;;19.98;14.15;;;15.90;68.30;;;;;;5058972;28;20021;-60
2022/04/23 01:11:36;;;;;;;22.00;14.75;;;15.80;68.30;;;;;;5079387;28;20337;-61
2022/04/23 01:14:01;;;;;;;16.35;14.18;;;15.90;68.40;;;;;;5050770;28;20066;-61
2022/04/23 01:16:27;;;;;;;23.50;14.38;;;15.90;68.30;;;;;;5067407;28;20093;-61
2022/04/23 01:18:52;;;;;;;16.45;13.52;;;15.90;68.40;;;;;;5060659;28;20502;-61
2022/04/23 01:21:18;;;;;;;14.50;12.75;;;15.90;68.50;;;;;;5078740;28;20043;-60
2022/04/23 01:23:46;;;;;;;21.20;13.10;;;15.90;68.50;;;;;;5073112;28;20028;-60
2022/04/23 01:26:11;;;;;;;15.63;13.18;;;15.90;68.50;;;;;;5058754;28;20100;-61
2022/04/23 01:28:38;;;;;;;15.30;12.88;;;15.90;68.60;;;;;;5088129;28;20464;-61
2022/04/23 01:31:04;;;;;;;16.70;13.73;;;15.90;68.70;;;;;;5066399;28;20028;-60
2022/04/23 01:33:30;;;;;;;18.98;13.00;;;15.90;68.80;;;;;;5071407;28;20028;-61
2022/04/23 01:35:56;;;;;;;15.32;12.10;;;15.80;69.50;;;;;;5076891;28;20056;-60
2022/04/23 01:38:21;;;;;;;16.50;12.75;;;15.80;68.90;;;;;;5085312;28;20071;-60
2022/04/23 01:40:47;;;;;;;17.17;12.05;;;15.80;69.00;;;;;;5089017;28;20255;-61
2022/04/23 01:43:13;;;;;;;15.82;11.77;;;15.80;68.90;;;;;;5064621;28;20119;-60
2022/04/23 01:45:38;;;;;;;16.10;12.48;;;15.80;68.90;;;;;;5080315;28;20024;-60
2022/04/23 01:48:04;;;;;;;13.52;11.75;;;15.80;68.90;;;;;;5071376;28;20525;-61
2022/04/23 01:50:30;;;;;;;16.55;12.65;;;15.80;68.90;;;;;;5072097;28;20020;-61
2022/04/23 01:52:55;;;;;;;16.77;14.02;;;15.80;68.80;;;;;;5085458;28;20512;-60
2022/04/23 01:55:21;;;;;;;18.98;14.65;;;15.80;69.00;;;;;;5084164;28;20047;-61
2022/04/23 01:57:46;;;;;;;18.85;14.68;;;15.80;69.10;;;;;;5053580;28;20179;-61
2022/04/23 02:00:15;;;;;;;22.10;14.15;;;15.80;69.40;;;;;;5061809;28;20027;-61
2022/04/23 02:02:41;;;;;;;20.45;13.18;;;15.80;69.40;;;;;;5064763;28;20099;-61
2022/04/23 02:05:07;;;;;;;21.33;13.05;;;15.80;69.30;;;;;;5064033;28;20532;-60
2022/04/23 02:07:39;;;;;;;25.67;14.05;;;15.70;69.40;;;;;;5083285;28;20032;-60
2022/04/23 02:10:06;;;;;;;21.25;13.73;;;15.70;69.40;;;;;;5068911;28;20012;-61
2022/04/23 02:12:31;;;;;;;17.38;13.55;;;15.70;69.40;;;;;;5075731;28;20376;-60
2022/04/23 02:14:57;;;;;;;16.30;12.32;;;15.70;69.40;;;;;;5088578;28;20123;-60
2022/04/23 02:17:22;;;;;;;14.93;13.02;;;15.70;69.40;;;;;;5068890;28;20131;-61
2022/04/23 02:19:48;;;;;;;13.68;12.15;;;15.70;69.50;;;;;;5080813;28;20128;-60
2022/04/23 02:22:13;;;;;;;14.57;12.18;;;15.70;69.40;;;;;;5068228;28;20117;-61
2022/04/23 02:24:39;;;;;;;15.75;12.63;;;15.60;69.40;;;;;;5088291;28;20434;-61
2022/04/23 02:27:04;;;;;;;14.77;11.90;;;15.60;69.40;;;;;;5080871;28;20032;-60
2022/04/23 02:29:30;;;;;;;13.35;11.88;;;15.60;69.30;;;;;;5074023;28;20055;-60
2022/04/23 02:31:55;;;;;;;13.73;11.93;;;15.60;69.30;;;;;;5072497;28;20052;-60
2022/04/23 02:34:21;;;;;;;15.15;12.55;;;15.60;69.20;;;;;;5073649;28;20510;-60
2022/04/23 02:36:47;;;;;;;17.67;12.90;;;15.60;69.20;;;;;;5070415;28;20459;-61
2022/04/23 02:39:13;;;;;;;18.40;13.07;;;15.60;69.20;;;;;;5087357;28;20363;-61
2022/04/23 02:41:39;;;;;;;18.42;13.02;;;15.60;69.20;;;;;;5082837;28;20032;-60
2022/04/23 02:44:04;;;;;;;17.40;13.05;;;15.60;69.20;;;;;;5081448;28;20513;-61
2022/04/23 02:46:30;;;;;;;17.45;12.40;;;15.60;69.20;;;;;;5075219;28;20033;-61
2022/04/23 02:48:58;;;;;;;21.30;13.40;;;15.60;69.20;;;;;;5085414;28;20513;-60
2022/04/23 02:51:23;;;;;;;19.73;13.18;;;15.60;69.20;;;;;;5081767;28;20032;-60
2022/04/23 02:53:49;;;;;;;14.98;12.60;;;15.60;69.30;;;;;;5076640;28;20448;-60
2022/04/23 02:56:17;;;;;;;18.92;12.77;;;15.50;69.30;;;;;;5087507;28;20436;-60
2022/04/23 02:58:43;;;;;;;19.30;13.13;;;15.50;69.30;;;;;;5085999;28;20030;-61
2022/04/23 03:01:10;;;;;;;17.48;12.98;;;15.50;69.30;;;;;;5083926;28;20032;-61
2022/04/23 03:03:38;;;;;;;17.17;12.82;;;15.50;69.30;;;;;;5083083;28;20048;-60
2022/04/23 03:06:07;;;;;;;16.50;12.13;;;15.50;69.30;;;;;;5082936;28;20032;-60
2022/04/23 03:08:33;;;;;;;20.20;12.32;;;15.50;69.30;;;;;;5077427;28;20386;-60
2022/04/23 03:10:58;;;;;;;20.67;12.15;;;15.50;69.40;;;;;;5073213;28;20040;-60
2022/04/23 03:13:24;;;;;;;20.08;12.00;;;15.50;69.30;;;;;;5087225;28;20032;-60
2022/04/23 03:15:49;;;;;;;23.58;12.85;;;15.50;69.40;;;;;;5080905;28;20081;-61
2022/04/23 03:18:15;;;;;;;15.27;11.70;;;15.40;69.30;;;;;;5085849;28;20482;-60
2022/04/23 03:20:41;;;;;;;21.45;12.30;;;15.40;69.20;;;;;;5052617;28;20473;-61
2022/04/23 03:23:07;;;;;;;22.23;11.75;;;15.40;69.30;;;;;;5066151;28;20092;-61
2022/04/23 03:25:32;;;;;;;22.13;12.95;;;15.40;69.40;;;;;;5085639;28;20028;-61
2022/04/23 03:27:59;;;;;;;19.52;12.18;;;15.40;69.40;;;;;;5081244;28;20522;-60
2022/04/23 03:30:25;;;;;;;19.63;11.70;;;15.40;70.10;;;;;;5065874;28;20032;-60
2022/04/23 03:32:50;;;;;;;21.40;11.20;;;15.40;69.20;;;;;;5067178;28;20790;-60
2022/04/23 03:35:16;;;;;;;16.52;11.63;;;15.30;69.20;;;;;;5081452;28;20056;-60
2022/04/23 03:37:41;;;;;;;19.27;11.05;;;15.30;69.20;;;;;;5066098;28;20102;-60
2022/04/23 03:40:08;;;;;;;25.23;11.32;;;15.30;69.20;;;;;;5078968;28;20410;-60
2022/04/23 03:42:34;;;;;;;16.60;10.98;;;15.30;69.20;;;;;;5066080;28;20560;-60
2022/04/23 03:45:00;;;;;;;13.93;10.30;;;15.30;69.30;;;;;;5068147;28;20031;-60
2022/04/23 03:47:26;;;;;;;17.38;10.38;;;15.30;69.30;;;;;;5067705;28;20111;-60
2022/04/23 03:49:51;;;;;;;17.50;11.60;;;15.30;69.20;;;;;;5066869;28;20528;-61
2022/04/23 03:52:17;;;;;;;16.02;11.15;;;15.30;69.20;;;;;;5082298;28;20101;-61
2022/04/23 03:54:42;;;;;;;15.55;10.90;;;15.30;69.30;;;;;;5067920;28;20113;-61
2022/04/23 03:57:08;;;;;;;13.50;10.88;;;15.30;69.30;;;;;;5088050;28;20082;-60
2022/04/23 03:59:35;;;;;;;14.15;11.30;;;15.30;69.30;;;;;;5081617;28;20050;-60
2022/04/23 04:02:04;;;;;;;19.92;10.48;;;15.30;69.30;;;;;;5063119;28;20475;-60
2022/04/23 04:04:32;;;;;;;13.70;10.35;;;15.30;69.50;;;;;;5071162;28;20034;-60
2022/04/23 04:06:59;;;;;;;14.73;10.52;;;15.30;69.60;;;;;;5078339;28;20055;-60
2022/04/23 04:09:26;;;;;;;14.40;10.75;;;15.20;69.60;;;;;;5085985;28;20467;-61
2022/04/23 04:12:01;;;;;;;16.48;11.10;;;15.20;69.50;;;;;;5077807;28;20024;-60
2022/04/23 04:14:27;;;;;;;16.10;10.05;;;15.20;69.40;;;;;;5048557;28;20044;-60
2022/04/23 04:16:52;;;;;;;17.45;11.23;;;15.20;69.50;;;;;;5067923;28;20104;-60
2022/04/23 04:19:18;;;;;;;14.32;9.93;;;15.20;69.60;;;;;;5052436;28;20095;-60
2022/04/23 04:21:44;;;;;;;19.02;10.63;;;15.20;69.60;;;;;;5073699;28;20048;-61
2022/04/23 04:24:13;;;;;;;13.82;10.60;;;15.20;69.70;;;;;;5088887;28;20640;-60
2022/04/23 04:26:44;;;;;;;19.30;10.13;;;15.10;69.80;;;;;;5081213;28;20028;-61
2022/04/23 04:29:16;;;;;;;16.42;11.15;;;15.10;69.60;;;;;;5088131;28;20020;-60
2022/04/23 04:31:47;;;;;;;22.98;12.40;;;15.10;69.60;;;;;;5062853;28;20047;-60
2022/04/23 04:34:13;;;;;;;15.43;10.63;;;15.20;69.70;;;;;;5047259;28;20078;-60
2022/04/23 04:36:39;;;;;;;14.88;10.80;;;15.10;69.70;;;;;;5074346;28;20024;-60
2022/04/23 04:39:04;;;;;;;17.02;10.55;;;15.10;69.50;;;;;;5080310;28;20491;-60
2022/04/23 04:41:31;;;;;;;18.83;10.23;;;15.10;69.50;;;;;;5084765;28;20054;-60
2022/04/23 04:43:57;;;;;;;15.20;10.55;;;15.10;69.50;;;;;;5071213;28;20053;-60
2022/04/23 04:46:22;;;;;;;14.63;10.30;;;15.10;69.50;;;;;;5073417;28;20153;-61
2022/04/23 04:48:49;;;;;;;14.48;9.43;;;15.00;69.50;;;;;;5076816;28;20028;-60
2022/04/23 04:51:14;;;;;;;17.88;10.20;;;15.00;69.50;;;;;;5086396;28;20020;-61
2022/04/23 04:53:40;;;;;;;12.43;9.63;;;15.00;69.50;;;;;;5078811;28;20070;-61
2022/04/23 04:56:07;;;;;;;34.70;11.98;;;15.00;69.50;;;;;;5082564;28;20105;-60
2022/04/23 04:58:33;;;;;;;50.58;14.55;;;15.00;69.50;;;;;;5062973;28;20023;-60
2022/04/23 05:00:58;;;;;;;45.60;11.63;;;15.00;69.60;;;;;;5086803;28;20036;-60
2022/04/23 05:03:25;;;;;;;28.40;12.43;;;15.00;69.60;;;;;;5083120;28;20059;-60
2022/04/23 05:05:51;;;;;;;34.67;11.57;;;15.00;69.60;;;;;;5083761;28;20115;-61
2022/04/23 05:08:17;;;;;;;27.55;11.80;;;15.00;69.60;;;;;;5073262;28;20103;-61
2022/04/23 05:10:42;;;;;;;40.63;11.77;;;15.00;69.70;;;;;;5085370;28;20448;-60
2022/04/23 05:13:08;;;;;;;35.17;12.20;;;15.00;69.80;;;;;;5086792;28;20028;-59
2022/04/23 05:15:33;;;;;;;39.53;12.13;;;15.00;69.70;;;;;;5071519;28;20272;-60
2022/04/23 05:17:59;;;;;;;30.25;11.95;;;15.00;69.60;;;;;;5078204;28;20086;-60
2022/04/23 05:20:24;;;;;;;25.88;11.38;;;15.00;69.60;;;;;;5081795;28;20051;-60
2022/04/23 05:22:50;;;;;;;25.02;11.55;;;15.00;69.70;;;;;;5089948;28;20032;-60
2022/04/23 05:25:15;;;;;;;42.13;12.48;;;15.00;69.60;;;;;;5064274;28;20097;-60
2022/04/23 05:27:41;;;;;;;25.23;11.65;;;15.00;69.60;;;;;;5059789;28;20671;-60
2022/04/23 05:30:07;;;;;;;29.05;12.50;;;15.00;69.60;;;;;;5068354;28;20059;-61
2022/04/23 05:32:32;;;;;;;29.83;11.75;;;15.00;69.60;;;;;;5050406;28;20043;-60
2022/04/23 05:34:58;;;;;;;24.17;11.50;;;15.00;69.60;;;;;;5066048;28;20023;-60
2022/04/23 05:37:24;;;;;;;21.80;11.23;;;15.00;69.70;;;;;;5067654;28;20036;-61
2022/04/23 05:39:49;;;;;;;29.10;12.02;;;14.90;69.70;;;;;;5066920;28;20116;-59
2022/04/23 05:42:15;;;;;;;24.15;11.52;;;14.90;69.70;;;;;;5083745;28;20101;-60
2022/04/23 05:44:40;;;;;;;35.50;11.80;;;14.90;69.80;;;;;;5075459;28;20101;-61
2022/04/23 05:47:06;;;;;;;25.27;11.27;;;14.90;69.80;;;;;;5061582;28;20567;-61
2022/04/23 05:49:31;;;;;;;20.70;10.50;;;14.90;69.80;;;;;;5060553;28;20505;-60
2022/04/23 05:51:57;;;;;;;33.35;10.75;;;14.90;69.80;;;;;;5047467;28;20111;-60
2022/04/23 05:54:22;;;;;;;20.67;10.88;;;14.90;69.80;;;;;;5082310;28;20364;-61
2022/04/23 05:56:48;;;;;;;27.25;11.43;;;14.90;69.80;;;;;;5064805;28;20032;-60
2022/04/23 05:59:13;;;;;;;22.05;11.02;;;14.90;69.80;;;;;;5084896;28;20036;-61
2022/04/23 06:01:39;;;;;;;28.80;10.75;;;14.90;69.80;;;;;;5083745;28;20164;-59
2022/04/23 06:04:04;;;;;;;20.52;10.32;;;14.90;69.70;;;;;;5087313;28;20048;-60
2022/04/23 06:06:30;;;;;;;26.33;10.30;;;14.90;69.60;;;;;;5079187;28;20456;-60
2022/04/23 06:08:56;;;;;;;24.02;10.35;;;14.90;69.70;;;;;;5055854;28;20119;-60
2022/04/23 06:11:22;;;;;;;28.63;10.63;;;14.90;70.00;;;;;;5082618;28;20017;-60
2022/04/23 06:13:47;;;;;;;15.95;10.68;;;14.90;70.30;;;;;;5080580;28;20051;-60
2022/04/23 06:16:13;;;;;;;27.55;11.25;;;14.90;70.30;;;;;;5081814;28;20384;-60
2022/04/23 06:18:38;;;;;;;22.85;10.57;;;14.90;70.20;;;;;;5078930;28;20074;-60
2022/04/23 06:21:04;;;;;;;20.73;9.85;;;14.90;70.20;;;;;;5085173;28;20148;-61
2022/04/23 06:23:30;;;;;;;20.67;10.20;;;14.90;70.30;;;;;;5074540;28;20035;-61
2022/04/23 06:25:55;;;;;;;21.48;10.27;;;14.90;70.40;;;;;;5084449;28;20232;-60
2022/04/23 06:28:21;;;;;;;25.17;10.93;;;14.90;70.30;;;;;;5070309;28;20032;-60
2022/04/23 06:30:46;;;;;;;21.52;10.70;;;14.90;70.30;;;;;;5058681;28;20043;-60
2022/04/23 06:33:12;;;;;;;19.67;9.88;;;14.90;70.20;;;;;;5087272;28;20089;-61
2022/04/23 06:35:37;;;;;;;16.55;9.93;;;14.90;70.30;;;;;;5084426;28;20024;-61
2022/04/23 06:38:03;;;;;;;20.27;10.23;;;14.90;70.20;;;;;;5087887;28;20032;-60
2022/04/23 06:40:29;;;;;;;25.80;10.50;;;15.00;70.20;;;;;;5074419;28;20373;-60
2022/04/23 06:42:54;;;;;;;14.85;10.38;;;14.90;70.20;;;;;;5073275;28;20051;-60
2022/04/23 06:45:20;;;;;;;20.88;10.10;;;15.00;70.20;;;;;;5086001;28;20454;-60
2022/04/23 06:47:45;;;;;;;17.17;10.02;;;15.00;70.30;;;;;;5063136;28;20472;-60
2022/04/23 06:50:11;;;;;;;22.70;10.85;;;14.90;70.20;;;;;;5082323;28;20094;-60
2022/04/23 06:52:37;;;;;;;22.15;10.32;;;15.00;70.20;;;;;;5076590;28;20043;-60
2022/04/23 06:55:03;;;;;;;18.02;10.10;;;15.00;70.20;;;;;;5075743;28;20158;-60
2022/04/23 06:57:28;;;;;;;17.38;9.82;;;15.00;70.10;;;;;;5065127;28;20050;-61
2022/04/23 06:59:54;;;;;;;16.83;10.48;;;15.00;70.70;;;;;;5081396;28;20106;-61
2022/04/23 07:02:20;;;;;;;20.33;9.95;;;15.00;69.90;;;;;;5079592;28;20540;-60
2022/04/23 07:04:45;;;;;;;17.70;10.20;;;15.00;70.00;;;;;;5060582;28;20039;-60
2022/04/23 07:07:11;;;;;;;15.88;9.88;;;15.10;70.00;;;;;;5086690;28;20043;-60
2022/04/23 07:09:37;;;;;;;15.02;9.60;;;15.00;69.90;;;;;;5069825;28;20059;-61
2022/04/23 07:12:04;;;;;;;18.52;9.52;;;15.00;69.80;;;;;;5068595;28;20059;-60
2022/04/23 07:14:29;;;;;;;17.02;9.63;;;15.00;69.90;;;;;;5077774;28;20028;-60
2022/04/23 07:16:55;;;;;;;15.25;10.38;;;15.10;69.80;;;;;;5086164;28;20024;-60
2022/04/23 07:19:20;;;;;;;14.80;9.55;;;15.10;69.80;;;;;;5076108;28;20503;-60
2022/04/23 07:21:46;;;;;;;15.15;9.90;;;15.10;69.70;;;;;;5070864;28;20047;-60
2022/04/23 07:24:13;;;;;;;17.65;9.52;;;15.10;69.60;;;;;;5076048;28;20098;-60
2022/04/23 07:26:38;;;;;;;12.13;8.43;;;15.10;70.40;;;;;;5080325;28;20101;-59
2022/04/23 07:29:07;;;;;;;16.45;9.65;;;15.10;69.80;;;;;;5068947;28;20099;-60
2022/04/23 07:31:33;;;;;;;17.70;9.50;;;15.10;69.80;;;;;;5067830;28;20032;-60
2022/04/23 07:39:27;;;;;;;13.55;9.50;;;15.20;69.80;;;;;;5089035;28;20113;-60
2022/04/23 07:41:54;;;;;;;13.48;9.05;;;15.20;69.90;;;;;;5076360;28;20414;-60
2022/04/23 07:44:21;;;;;;;11.57;9.13;;;15.20;69.90;;;;;;5079810;28;20028;-60
2022/04/23 07:46:46;;;;;;;19.02;9.38;;;15.20;69.90;;;;;;5064874;28;20131;-60
2022/04/23 07:49:13;;;;;;;16.58;8.88;;;15.20;70.00;;;;;;5065446;28;20119;-61
2022/04/23 07:51:39;;;;;;;10.27;9.18;;;15.20;69.70;;;;;;5069364;28;20173;-61
2022/04/23 07:54:04;;;;;;;14.68;9.40;;;15.30;69.60;;;;;;5085174;28;20012;-60
2022/04/23 07:56:30;;;;;;;11.32;8.90;;;15.20;69.50;;;;;;5086205;28;20032;-60
2022/04/23 07:58:56;;;;;;;11.38;8.68;;;15.30;69.50;;;;;;5076205;28;20043;-60
2022/04/23 08:01:21;;;;;;;17.35;9.75;;;15.30;69.50;;;;;;5065732;28;20032;-60
2022/04/23 08:03:47;;;;;;;14.32;9.65;;;15.30;69.60;;;;;;5079877;28;20028;-61
2022/04/23 08:06:13;;;;;;;16.15;10.02;;;15.30;69.80;;;;;;5079668;28;20443;-60
2022/04/23 08:08:39;;;;;;;14.05;10.57;;;15.30;70.40;;;;;;5077628;28;20415;-60
2022/04/23 08:11:05;;;;;;;11.70;9.48;;;15.30;69.90;;;;;;5069058;28;20024;-60
2022/04/23 08:13:32;;;;;;;11.82;10.32;;;15.30;70.00;;;;;;5067434;28;20035;-61
2022/04/23 08:15:59;;;;;;;13.55;9.85;;;15.40;70.20;;;;;;5072365;28;20063;-60
2022/04/23 08:18:25;;;;;;;14.10;9.98;;;15.40;70.20;;;;;;5074261;28;20016;-60
2022/04/23 08:20:51;;;;;;;13.68;10.18;;;15.40;70.20;;;;;;5057086;28;20046;-61
2022/04/23 08:23:17;;;;;;;12.13;10.27;;;15.40;70.30;;;;;;5081565;28;20028;-60
2022/04/23 08:25:45;;;;;;;17.85;11.13;;;15.40;70.20;;;;;;5080349;28;20435;-60
2022/04/23 08:30:55;;;;;;;26.02;12.32;;;15.40;70.30;;;;;;5063855;28;20051;-61
2022/04/23 08:33:21;;;;;;;26.10;11.25;;;15.50;70.30;;;;;;5084551;28;20066;-61
2022/04/23 08:35:46;;;;;;;26.95;11.40;;;15.50;70.40;;;;;;5081782;28;20059;-60
2022/04/23 08:38:12;;;;;;;29.85;11.93;;;15.50;70.40;;;;;;5083362;28;20099;-61
2022/04/23 08:40:39;;;;;;;41.78;12.70;;;15.50;70.60;;;;;;5081953;28;20387;-60
2022/04/23 08:43:06;;;;;;;39.70;13.05;;;15.50;70.90;;;;;;5051771;28;20032;-60
2022/04/23 08:45:34;;;;;;;36.75;13.75;;;15.60;71.10;;;;;;5083868;28;20027;-61
2022/04/23 08:48:00;;;;;;;44.72;14.57;;;15.60;71.10;;;;;;5055968;28;20075;-61
2022/04/23 08:50:26;;;;;;;37.25;13.63;;;15.60;71.30;;;;;;5059219;28;20127;-60
2022/04/23 08:52:54;;;;;;;36.92;12.43;;;15.60;71.10;;;;;;5057575;28;20442;-60
2022/04/23 08:55:19;;;;;;;79.13;17.02;;;15.70;70.90;;;;;;5080802;28;20494;-60
2022/04/23 08:57:45;;;;;;;79.97;18.42;;;15.70;70.90;;;;;;5053539;28;20084;-60
2022/04/23 09:00:14;;;;;;;73.38;17.00;;;15.70;71.70;;;;;;5079845;28;20107;-60
2022/04/23 09:02:41;;;;;;;73.57;16.73;;;15.80;71.90;;;;;;5071128;28;20085;-60
2022/04/23 09:05:07;;;;;;;68.68;15.93;;;15.80;72.10;;;;;;5077900;28;20040;-61
2022/04/23 09:07:32;;;;;;;76.75;18.00;;;15.80;71.90;;;;;;5062270;28;20039;-60
2022/04/23 09:09:58;;;;;;;90.82;19.65;;;15.80;72.00;;;;;;5079631;28;20046;-60
2022/04/23 09:12:24;;;;;;;89.90;19.67;;;15.90;72.20;;;;;;5051615;28;20540;-61
2022/04/23 09:15:03;;;;;;;103.65;20.65;;;16.00;72.50;;;;;;5059719;28;20035;-61
2022/04/23 09:25:40;;;;;;;97.78;20.23;;;16.10;72.20;;;;;;5056847;28;20031;-61
2022/04/23 09:28:22;;;;;;;100.30;20.83;;;16.10;72.20;;;;;;5082102;28;20040;-61
2022/04/23 09:30:51;;;;;;;96.57;18.85;;;16.20;72.20;;;;;;5057241;28;20025;-61
2022/04/23 09:33:18;;;;;;;84.80;20.00;;;16.20;72.40;;;;;;5059498;28;20040;-61
2022/04/23 09:35:57;;;;;;;93.05;20.98;;;16.30;72.90;;;;;;5078780;28;20127;-61
2022/04/23 09:38:23;;;;;;;127.70;21.92;;;16.30;72.50;;;;;;5051802;28;20051;-60
2022/04/23 09:40:51;;;;;;;110.65;21.65;;;16.30;72.90;;;;;;5040923;28;20052;-61
2022/04/23 09:43:23;;;;;;;159.93;25.50;;;16.30;72.70;;;;;;5080068;28;20073;-60
2022/04/23 09:45:58;;;;;;;224.85;30.70;;;16.30;73.10;;;;;;5049256;28;20156;-60
2022/04/23 09:48:24;;;;;;;140.18;23.02;;;16.40;72.70;;;;;;5076951;28;20016;-60
2022/04/23 09:50:49;;;;;;;116.20;22.58;;;16.30;72.20;;;;;;5064753;28;20439;-60
2022/04/23 09:53:16;;;;;;;118.35;21.65;;;16.40;72.40;;;;;;5051900;28;20052;-60
2022/04/23 09:55:42;;;;;;;116.03;21.52;;;16.40;72.60;;;;;;5075580;28;20027;-60
2022/04/23 09:58:08;;;;;;;99.03;21.55;;;16.40;72.80;;;;;;5078682;28;20031;-61
2022/04/23 10:00:39;;;;;;;143.05;23.05;;;16.50;73.00;;;;;;5086240;28;20062;-60
2022/04/23 10:03:08;;;;;;;131.77;23.33;;;16.50;73.10;;;;;;5078901;28;20021;-61
2022/04/23 10:06:01;;;;;;;143.23;24.95;;;16.50;73.40;;;;;;5047993;28;20028;-61
2022/04/23 10:08:31;;;;;;;133.15;25.00;;;16.50;73.20;;;;;;5065668;28;20040;-61
2022/04/23 10:11:00;;;;;;;161.40;25.50;;;16.60;73.30;;;;;;5067762;28;20157;-61
2022/04/23 10:13:30;;;;;;;169.23;28.00;;;16.60;73.50;;;;;;5068683;28;20048;-61
2022/04/23 10:15:57;;;;;;;145.00;26.50;;;16.60;73.60;;;;;;5056346;28;20042;-62
2022/04/23 10:18:22;;;;;;;129.02;24.83;;;16.70;73.90;;;;;;5062450;28;20058;-61
2022/04/23 10:21:02;;;;;;;113.10;22.13;;;16.60;74.10;;;;;;5031678;28;20464;-61
2022/04/23 10:24:12;;;;;;;88.47;21.15;;;16.80;73.00;;;;;;5061426;28;20069;-61
2022/04/23 10:26:48;;;;;;;100.90;20.00;;;16.80;72.50;;;;;;5063119;28;20142;-61
2022/04/23 10:29:16;;;;;;;102.63;22.40;;;16.90;72.40;;;;;;5063283;28;20054;-61
2022/04/23 10:31:42;;;;;;;124.35;22.42;;;16.80;72.50;;;;;;5062954;28;20131;-61
2022/04/23 10:34:31;;;;;;;126.10;23.33;;;16.90;72.70;;;;;;5060545;28;20162;-61
2022/04/23 10:37:18;;;;;;;123.55;23.35;;;17.00;72.50;;;;;;5061040;28;20643;-61
2022/04/23 10:39:44;;;;;;;151.52;25.33;;;17.00;72.40;;;;;;5088206;28;20111;-61
2022/04/23 10:42:14;;;;;;;124.57;24.35;;;17.10;72.20;;;;;;5067635;28;20486;-61
2022/04/23 10:44:39;;;;;;;122.88;24.10;;;17.10;72.20;;;;;;5057924;28;20093;-61
2022/04/23 10:47:29;;;;;;;117.53;24.38;;;17.10;72.00;;;;;;5060992;28;20034;-62
2022/04/23 10:50:15;;;;;;;129.73;23.92;;;17.20;71.90;;;;;;5079656;28;20028;-60
2022/04/23 10:52:41;;;;;;;139.60;23.80;;;17.20;71.90;;;;;;5072987;28;20116;-61
2022/04/23 10:55:07;;;;;;;143.93;24.13;;;17.20;71.70;;;;;;5041285;28;20384;-61
2022/04/23 10:57:34;;;;;;;168.60;24.73;;;17.20;71.60;;;;;;5048804;28;20025;-61
2022/04/23 11:00:10;;;;;;;140.80;24.77;;;17.20;71.50;;;;;;5062114;28;20063;-60
2022/04/23 11:02:37;;;;;;;128.02;22.33;;;17.30;71.50;;;;;;5058747;28;20044;-61
2022/04/23 11:13:50;;;;;;;144.93;24.13;;;17.50;71.30;;;;;;5067263;28;20043;-60
2022/04/23 11:16:17;;;;;;;222.45;32.17;;;17.60;71.10;;;;;;5046768;28;20019;-61
2022/04/23 11:18:44;;;;;;;116.13;22.27;;;17.40;71.20;;;;;;5062967;28;20032;-61
2022/04/23 11:21:23;;;;;;;160.32;25.02;;;17.60;71.20;;;;;;5061870;28;20537;-61
2022/04/23 11:23:49;;;;;;;122.57;21.85;;;17.70;70.80;;;;;;5059482;28;21805;-61
2022/04/23 11:26:18;;;;;;;118.55;22.05;;;17.70;70.70;;;;;;5040186;28;20036;-61
2022/04/23 11:28:47;;;;;;;126.90;20.92;;;17.80;70.60;;;;;;5080100;28;20018;-61
2022/04/23 11:31:16;;;;;;;112.32;23.00;;;17.90;70.60;;;;;;5079324;28;20107;-61
2022/04/23 11:33:51;;;;;;;136.80;22.13;;;17.90;70.50;;;;;;5064098;28;20040;-61
2022/04/23 11:36:18;;;;;;;148.32;24.33;;;17.90;70.40;;;;;;5084998;28;20055;-61
2022/04/23 11:38:44;;;;;;;129.90;22.52;;;17.90;70.40;;;;;;5061317;28;20035;-61
2022/04/23 11:41:09;;;;;;;145.20;23.10;;;18.00;70.40;;;;;;5082288;28;20036;-61
2022/04/23 11:43:37;;;;;;;108.28;21.10;;;18.00;70.30;;;;;;5062275;28;20036;-61
2022/04/23 11:46:07;;;;;;;113.38;20.23;;;18.00;70.30;;;;;;5066181;28;20325;-61
2022/04/23 11:48:42;;;;;;;108.07;20.60;;;18.00;70.30;;;;;;5078378;28;20586;-60
2022/04/23 11:51:12;;;;;;;96.25;20.58;;;18.10;70.20;;;;;;5083151;28;20024;-61
2022/04/23 11:54:00;;;;;;;88.43;17.92;;;18.20;70.10;;;;;;5048802;28;20028;-61
2022/04/23 11:56:33;;;;;;;95.45;20.58;;;18.20;69.90;;;;;;5078653;28;20204;-60
2022/04/23 11:59:07;;;;;;;96.45;19.83;;;18.30;69.80;;;;;;5064311;28;20035;-61
2022/04/23 12:01:33;;;;;;;102.60;18.00;;;18.40;69.70;;;;;;5063649;28;20036;-61
2022/04/23 12:03:58;;;;;;;126.57;19.92;;;18.50;69.50;;;;;;5065405;28;20376;-61
2022/04/23 12:06:24;;;;;;;85.07;18.55;;;18.50;69.30;;;;;;5062646;28;20064;-61
2022/04/23 12:08:50;;;;;;;105.63;17.90;;;18.60;69.00;;;;;;5065039;28;20035;-61
2022/04/23 12:11:23;;;;;;;104.07;20.58;;;18.70;69.00;;;;;;5060508;28;20499;-61
2022/04/23 12:13:48;;;;;;;96.63;18.08;;;18.70;68.80;;;;;;5074218;28;20090;-61
2022/04/23 12:16:31;;;;;;;87.63;18.02;;;18.80;68.90;;;;;;5071475;28;20028;-61
2022/04/23 12:19:13;;;;;;;87.45;18.20;;;18.70;68.70;;;;;;5059757;28;20131;-62
2022/04/23 12:21:39;;;;;;;81.85;17.48;;;18.80;68.60;;;;;;5078383;28;20078;-61
2022/04/23 12:24:07;;;;;;;90.13;16.63;;;18.80;68.60;;;;;;5063105;28;20028;-61
2022/04/23 12:26:36;;;;;;;82.00;16.55;;;18.90;68.60;;;;;;5075434;28;20441;-61
2022/04/23 12:43:20;;;;;;;68.47;16.13;;;19.10;68.30;;;;;;5043701;28;20047;-61
2022/04/23 12:45:47;;;;;;;71.88;15.88;;;19.10;68.30;;;;;;5039085;28;20064;-61
2022/04/23 12:48:14;;;;;;;67.63;15.95;;;19.20;68.30;;;;;;5057118;28;20563;-61
2022/04/23 12:50:39;;;;;;;65.43;16.10;;;19.30;68.10;;;;;;5057765;28;20114;-61
2022/04/23 12:53:05;;;;;;;56.20;14.82;;;19.30;68.10;;;;;;5056025;28;20132;-61
2022/04/23 12:55:36;;;;;;;73.75;15.98;;;19.30;68.00;;;;;;5039853;28;20104;-61
2022/04/23 12:58:07;;;;;;;67.45;14.90;;;19.30;67.80;;;;;;5059584;28;20320;-62
2022/04/23 13:00:35;;;;;;;64.85;15.60;;;19.30;67.80;;;;;;5053919;28;20036;-61
2022/04/23 13:03:16;;;;;;;59.50;14.65;;;19.40;67.90;;;;;;5039804;28;20013;-61
2022/04/23 13:05:41;;;;;;;69.60;15.02;;;19.40;67.90;;;;;;5023996;28;20047;-61